Alliston, Canada
Current Conditions -  °F | °C
As of 3:41 AM on Sunday 23 Nov 2014 (Local Time) from CYBN Reporting Station
Overcast Overcast  
Wind Chill: 39°   Ceiling: 800
Heat Index: 39°   Visibility: 2.5mi
Dew Point: 39°   Wind: 2mph
Humidity: 100%   Direction: 120°ESE
Pressure: 29.91"   Gusts: NA
Location:  44.15°N, 79.87°W
Report Text: CYBN 230841Z AUTO 12002KT 2 1/2SM OVC008 04/04 A2991
Loading
Personal Weather Stations






























Interactive Weather Map New forecast layout! Learn more

10-Day Weather Forecast

Advertisements
Track Severe Weather on mobile